createdAt,value
2022-10-06T00:00:17.054Z,51.05
2022-10-06T00:03:39.873Z,47.70
2022-10-06T00:07:01.832Z,53.53
2022-10-06T00:10:23.775Z,53.95
2022-10-06T00:13:46.230Z,52.17
2022-10-06T00:17:08.316Z,52.15
2022-10-06T00:20:30.380Z,52.63
2022-10-06T00:23:52.317Z,49.88
2022-10-06T00:27:14.296Z,50.35
2022-10-06T00:30:36.329Z,59.25
2022-10-06T00:33:58.239Z,53.70
2022-10-06T00:37:20.203Z,58.78
2022-10-06T00:40:50.285Z,59.65
2022-10-06T00:44:12.249Z,57.85
2022-10-06T00:47:34.450Z,59.78
2022-10-06T00:50:59.193Z,57.53
2022-10-06T00:54:21.708Z,65.63
2022-10-06T00:57:46.843Z,56.40
2022-10-06T01:01:11.496Z,56.55
2022-10-06T01:04:36.948Z,61.15
2022-10-06T01:07:59.346Z,62.10
2022-10-06T01:11:21.847Z,63.80
2022-10-06T01:14:43.892Z,73.65
2022-10-06T01:18:13.796Z,67.97
2022-10-06T01:21:40.369Z,61.80
2022-10-06T01:25:06.046Z,61.55
2022-10-06T01:28:28.921Z,58.60
2022-10-06T01:31:51.207Z,62.63
2022-10-06T01:35:13.666Z,62.28
2022-10-06T01:38:36.658Z,57.72
2022-10-06T01:41:59.722Z,58.17
2022-10-06T01:45:22.291Z,59.90
2022-10-06T01:48:44.272Z,65.32
2022-10-06T01:52:09.662Z,67.97
2022-10-06T01:55:31.747Z,65.78
2022-10-06T01:58:55.026Z,66.95
2022-10-06T02:02:17.517Z,70.40
2022-10-06T02:05:39.653Z,70.15
2022-10-06T02:09:02.830Z,65.47
2022-10-06T02:12:24.885Z,65.43
2022-10-06T02:15:47.121Z,67.78
2022-10-06T02:19:09.174Z,66.30
2022-10-06T02:22:31.386Z,60.83
2022-10-06T02:26:06.044Z,56.25
2022-10-06T02:29:29.253Z,62.30
2022-10-06T02:32:51.921Z,62.67
2022-10-06T02:36:16.722Z,55.38
2022-10-06T02:39:39.425Z,56.75
2022-10-06T02:43:03.790Z,61.00
2022-10-06T02:46:27.020Z,56.55
2022-10-06T02:49:49.276Z,56.65
2022-10-06T02:53:11.920Z,51.42
2022-10-06T02:56:33.868Z,55.28
2022-10-06T02:59:56.452Z,59.42
2022-10-06T03:03:18.951Z,54.83
2022-10-06T03:06:41.633Z,60.83
2022-10-06T03:10:15.645Z,61.85
2022-10-06T03:13:37.796Z,55.80
2022-10-06T03:17:00.222Z,61.13
2022-10-06T03:20:24.675Z,62.85
2022-10-06T03:23:48.385Z,62.85
2022-10-06T03:27:10.452Z,59.15
2022-10-06T03:30:32.762Z,64.75
2022-10-06T03:33:58.278Z,57.25
2022-10-06T03:37:22.953Z,58.65
2022-10-06T03:40:45.862Z,59.38
2022-10-06T03:44:08.065Z,54.90
2022-10-06T03:47:32.712Z,63.20
2022-10-06T03:51:00.829Z,56.95
2022-10-06T03:54:23.455Z,60.75
2022-10-06T03:57:47.726Z,54.53
2022-10-06T04:01:20.036Z,56.58
2022-10-06T04:04:44.620Z,58.97
2022-10-06T04:08:07.334Z,59.35
2022-10-06T04:11:32.579Z,53.95
2022-10-06T04:14:59.273Z,55.13
2022-10-06T04:18:23.348Z,59.22
2022-10-06T04:21:47.737Z,63.60
2022-10-06T04:25:13.956Z,61.42
2022-10-06T04:28:40.528Z,65.18
2022-10-06T04:32:02.778Z,54.35
2022-10-06T04:35:30.678Z,54.53
2022-10-06T04:38:56.338Z,54.95
2022-10-06T04:42:19.346Z,59.30
2022-10-06T04:45:41.509Z,54.92
2022-10-06T04:49:04.454Z,55.47
2022-10-06T04:52:28.140Z,55.35
2022-10-06T04:56:02.537Z,57.00
2022-10-06T04:59:46.239Z,52.60
2022-10-06T05:03:11.315Z,64.88
2022-10-06T05:06:36.267Z,62.60
2022-10-06T05:09:58.529Z,62.53
2022-10-06T05:13:20.973Z,58.95
2022-10-06T05:16:43.204Z,62.05
2022-10-06T05:20:07.250Z,61.60
2022-10-06T05:23:30.638Z,61.58
2022-10-06T05:26:56.302Z,57.70
2022-10-06T05:30:20.612Z,57.20
2022-10-06T05:33:42.926Z,55.30
2022-10-06T05:37:05.095Z,67.72
2022-10-06T05:40:27.356Z,64.57
2022-10-06T05:43:49.972Z,69.80
2022-10-06T05:47:12.498Z,73.40
2022-10-06T05:50:34.533Z,69.40
2022-10-06T05:53:57.687Z,71.15
2022-10-06T05:57:19.710Z,77.97
2022-10-06T06:00:41.761Z,73.35
2022-10-06T06:04:06.661Z,85.18
2022-10-06T06:07:36.265Z,78.45
2022-10-06T06:11:06.059Z,80.45
2022-10-06T06:14:47.334Z,84.35
2022-10-06T06:18:14.062Z,105.68
2022-10-06T06:21:36.308Z,139.98
2022-10-06T06:24:58.770Z,154.65
2022-10-06T06:28:20.802Z,167.40
2022-10-06T06:31:43.931Z,168.40
2022-10-06T06:35:06.727Z,107.40
2022-10-06T06:38:32.938Z,73.75
2022-10-06T06:41:55.294Z,57.15
2022-10-06T06:49:20.736Z,49.05
2022-10-06T06:52:47.815Z,40.78
2022-10-06T06:56:10.639Z,37.67
2022-10-06T06:59:34.162Z,36.17
2022-10-06T07:03:00.664Z,37.33
2022-10-06T07:06:28.982Z,34.78
2022-10-06T07:09:52.748Z,33.47
2022-10-06T07:13:17.468Z,32.03
2022-10-06T07:16:59.646Z,37.78
2022-10-06T07:20:40.762Z,31.67
2022-10-06T07:24:21.737Z,33.25
2022-10-06T07:27:47.180Z,30.02
2022-10-06T07:31:12.369Z,31.92
2022-10-06T07:34:37.544Z,31.45
2022-10-06T07:38:07.921Z,30.73
2022-10-06T07:41:37.607Z,32.40
2022-10-06T07:45:18.637Z,26.55
2022-10-06T07:48:41.005Z,29.73
2022-10-06T07:52:03.082Z,28.35
2022-10-06T07:55:25.113Z,31.35
2022-10-06T07:59:10.655Z,35.53
2022-10-06T08:02:35.620Z,26.80
2022-10-06T08:05:59.947Z,27.40
2022-10-06T08:09:22.660Z,27.70
2022-10-06T08:12:44.634Z,31.42
2022-10-06T08:16:08.551Z,27.80
2022-10-06T08:19:31.699Z,26.55
2022-10-06T08:22:54.454Z,28.90
2022-10-06T08:26:17.997Z,28.00
2022-10-06T08:29:39.960Z,24.73
2022-10-06T08:33:01.913Z,28.85
2022-10-06T08:36:31.031Z,27.48
2022-10-06T08:39:54.979Z,30.30
2022-10-06T08:43:20.453Z,30.85
2022-10-06T08:46:57.122Z,30.50
2022-10-06T08:50:21.354Z,27.05
2022-10-06T08:54:15.232Z,31.77
2022-10-06T08:57:42.937Z,30.02
2022-10-06T09:01:09.700Z,30.98
2022-10-06T09:04:34.203Z,31.20
2022-10-06T09:08:16.305Z,33.47
2022-10-06T09:11:53.994Z,31.40
2022-10-06T09:15:21.966Z,28.92
2022-10-06T09:19:07.134Z,30.67
2022-10-06T09:22:32.347Z,38.58
2022-10-06T09:25:58.091Z,34.33
2022-10-06T09:29:20.183Z,34.72
2022-10-06T09:32:53.662Z,42.28
2022-10-06T09:36:15.889Z,35.38
2022-10-06T09:39:50.747Z,36.95
2022-10-06T09:43:39.355Z,32.92
2022-10-06T09:47:01.567Z,39.15
2022-10-06T09:50:28.356Z,34.95
2022-10-06T09:54:11.051Z,33.75
2022-10-06T09:57:33.064Z,36.40
2022-10-06T10:00:57.251Z,38.15
2022-10-06T10:04:26.796Z,35.80
2022-10-06T10:08:09.292Z,36.53
2022-10-06T10:11:50.181Z,37.22
2022-10-06T10:15:13.232Z,35.55
2022-10-06T10:18:35.519Z,34.40
2022-10-06T10:21:57.682Z,38.05
2022-10-06T10:25:46.558Z,38.13
2022-10-06T10:29:15.025Z,41.25
2022-10-06T10:32:56.461Z,36.78
2022-10-06T10:36:24.119Z,37.85
2022-10-06T10:39:58.573Z,36.58
2022-10-06T10:43:26.726Z,34.88
2022-10-06T10:46:56.942Z,36.65
2022-10-06T10:50:42.667Z,43.95
2022-10-06T10:54:25.176Z,38.45
2022-10-06T10:57:52.439Z,38.22
2022-10-06T11:01:31.200Z,40.35
2022-10-06T11:05:31.269Z,40.70
2022-10-06T11:09:00.895Z,38.72
2022-10-06T11:12:34.315Z,38.10
2022-10-06T11:16:22.464Z,40.35
2022-10-06T11:19:58.156Z,36.55
2022-10-06T11:23:55.057Z,36.65
2022-10-06T11:27:35.164Z,42.22
2022-10-06T11:31:21.990Z,39.88
2022-10-06T11:34:56.722Z,40.28
2022-10-06T11:38:35.917Z,41.75
2022-10-06T11:42:16.590Z,38.45
2022-10-06T11:46:01.539Z,39.83
2022-10-06T11:49:30.908Z,44.50
2022-10-06T11:52:53.533Z,40.75
2022-10-06T11:56:21.616Z,43.50
2022-10-06T11:59:44.056Z,43.60
2022-10-06T12:03:33.882Z,45.28
2022-10-06T12:06:59.101Z,42.50
2022-10-06T12:10:28.852Z,42.20
2022-10-06T12:15:06.474Z,41.65
2022-10-06T12:17:46.405Z,42.70
2022-10-06T12:21:20.309Z,39.40
2022-10-06T12:25:02.402Z,39.75
2022-10-06T12:28:47.448Z,38.33
2022-10-06T12:32:27.281Z,44.53
2022-10-06T12:36:06.237Z,44.88
2022-10-06T12:39:28.742Z,46.13
2022-10-06T12:42:51.175Z,39.45
2022-10-06T12:46:48.023Z,44.95
2022-10-06T12:50:21.622Z,41.70
2022-10-06T12:54:09.142Z,40.75
2022-10-06T12:57:44.903Z,39.38
2022-10-06T13:01:13.107Z,42.60
2022-10-06T13:04:49.572Z,42.15
2022-10-06T13:08:27.701Z,39.20
2022-10-06T13:11:49.691Z,41.15
2022-10-06T13:15:24.044Z,45.85
2022-10-06T13:18:47.863Z,38.88
2022-10-06T13:22:14.476Z,40.38
2022-10-06T13:25:44.153Z,38.55
2022-10-06T13:29:25.332Z,36.28
2022-10-06T13:32:58.135Z,42.60
2022-10-06T13:36:20.483Z,37.53
2022-10-06T13:39:42.610Z,38.33
2022-10-06T13:43:04.778Z,50.50
2022-10-06T13:46:40.756Z,48.20
2022-10-06T13:50:17.350Z,44.97
2022-10-06T13:53:46.101Z,39.30
2022-10-06T13:57:37.163Z,39.63
2022-10-06T14:01:01.993Z,36.83
2022-10-06T14:04:24.104Z,35.17
2022-10-06T14:07:47.282Z,40.80
2022-10-06T14:11:10.880Z,38.38
2022-10-06T14:14:33.771Z,37.78
2022-10-06T14:18:02.439Z,39.08
2022-10-06T14:21:37.190Z,40.55
2022-10-06T14:24:59.273Z,39.45
2022-10-06T14:28:21.515Z,39.22
2022-10-06T14:31:44.502Z,39.50
2022-10-06T14:35:10.778Z,43.67
2022-10-06T14:38:33.179Z,41.15
2022-10-06T14:41:55.301Z,40.22
2022-10-06T14:45:19.457Z,41.15
2022-10-06T14:48:41.770Z,44.03
2022-10-06T14:52:06.100Z,41.50
2022-10-06T14:55:31.137Z,41.35
2022-10-06T14:58:53.668Z,41.45
2022-10-06T15:02:20.204Z,40.42
2022-10-06T15:06:02.504Z,36.72
2022-10-06T15:09:24.686Z,38.90
2022-10-06T15:12:47.331Z,43.63
2022-10-06T15:16:09.738Z,39.00
2022-10-06T15:19:37.268Z,37.60
2022-10-06T15:23:01.864Z,38.97
2022-10-06T15:26:44.533Z,39.78
2022-10-06T15:30:09.049Z,40.03
2022-10-06T15:33:32.077Z,41.20
2022-10-06T15:36:59.434Z,43.50
2022-10-06T15:40:21.470Z,39.42
2022-10-06T15:43:56.514Z,42.30
2022-10-06T15:47:19.367Z,45.90
2022-10-06T15:50:42.891Z,41.70
2022-10-06T15:54:05.699Z,40.97
2022-10-06T15:57:30.904Z,41.47
2022-10-06T16:00:52.993Z,41.42
2022-10-06T16:04:47.757Z,39.53
2022-10-06T16:08:10.938Z,37.40
2022-10-06T16:11:33.584Z,39.53
2022-10-06T16:14:56.118Z,37.15
2022-10-06T16:18:19.411Z,36.70
2022-10-06T16:21:44.103Z,40.80
2022-10-06T16:25:07.531Z,38.30
2022-10-06T16:28:29.733Z,40.30
2022-10-06T16:31:52.698Z,42.58
2022-10-06T16:35:18.505Z,37.75
2022-10-06T16:38:41.876Z,38.67
2022-10-06T16:42:04.143Z,38.92
2022-10-06T16:45:26.886Z,37.28
2022-10-06T16:48:51.208Z,40.13
2022-10-06T16:52:13.211Z,39.67
2022-10-06T16:55:35.201Z,37.25
2022-10-06T16:58:59.217Z,41.10
2022-10-06T17:02:21.486Z,38.35
2022-10-06T17:05:43.526Z,36.88
2022-10-06T17:09:12.380Z,36.78
2022-10-06T17:12:35.177Z,36.30
2022-10-06T17:15:59.553Z,35.67
2022-10-06T17:19:24.417Z,37.88
2022-10-06T17:22:46.677Z,35.08
2022-10-06T17:26:17.910Z,34.90
2022-10-06T17:29:42.473Z,31.75
2022-10-06T17:33:05.262Z,34.85
2022-10-06T17:36:27.410Z,30.98
2022-10-06T17:39:49.513Z,30.65
2022-10-06T17:43:11.543Z,31.58
2022-10-06T17:46:44.266Z,31.88
2022-10-06T17:50:07.761Z,28.55
2022-10-06T17:53:30.756Z,30.60
2022-10-06T17:56:56.123Z,28.02
2022-10-06T18:00:18.371Z,30.70
2022-10-06T18:03:42.874Z,25.02
2022-10-06T18:07:05.340Z,29.10
2022-10-06T18:10:47.513Z,30.50
2022-10-06T18:14:18.957Z,30.58
2022-10-06T18:17:43.029Z,32.42
2022-10-06T18:21:05.458Z,26.73
2022-10-06T18:24:30.431Z,33.58
2022-10-06T18:27:52.504Z,29.85
2022-10-06T18:31:17.016Z,31.40
2022-10-06T18:38:27.111Z,28.17
2022-10-06T18:41:51.284Z,28.98
2022-10-06T18:45:36.823Z,32.80
2022-10-06T18:49:08.953Z,28.83
2022-10-06T18:52:30.963Z,28.83
2022-10-06T18:55:52.988Z,28.00
2022-10-06T18:59:16.561Z,30.92
2022-10-06T19:02:38.579Z,32.03
2022-10-06T19:06:00.696Z,32.90
2022-10-06T19:09:25.072Z,34.67
2022-10-06T19:12:48.285Z,32.20
2022-10-06T19:16:10.644Z,36.15
2022-10-06T19:19:34.128Z,36.40
2022-10-06T19:22:56.330Z,35.45
2022-10-06T19:26:22.092Z,41.25
2022-10-06T19:29:46.918Z,41.17
2022-10-06T19:33:09.861Z,41.67
2022-10-06T19:36:32.667Z,42.10
2022-10-06T19:39:54.761Z,38.17
2022-10-06T19:43:17.658Z,41.55
2022-10-06T19:46:40.024Z,41.88
2022-10-06T19:50:08.778Z,40.55
2022-10-06T19:53:34.607Z,41.97
2022-10-06T19:56:57.886Z,35.97
2022-10-06T20:00:21.935Z,36.60
2022-10-06T20:03:44.235Z,42.90
2022-10-06T20:07:06.550Z,38.88
2022-10-06T20:10:28.611Z,39.38
2022-10-06T20:13:51.112Z,39.63
2022-10-06T20:17:13.170Z,41.65
2022-10-06T20:20:36.163Z,49.47
2022-10-06T20:24:00.179Z,56.40
2022-10-06T20:27:22.237Z,58.20
2022-10-06T20:30:49.890Z,51.08
2022-10-06T20:34:15.338Z,61.92
2022-10-06T20:37:42.166Z,57.13
2022-10-06T20:41:04.772Z,56.38
2022-10-06T20:44:27.441Z,61.33
2022-10-06T20:47:54.559Z,59.03
2022-10-06T20:51:27.722Z,54.95
2022-10-06T20:54:51.338Z,56.75
2022-10-06T20:58:13.745Z,59.17
2022-10-06T21:01:37.586Z,56.75
2022-10-06T21:05:00.142Z,52.05
2022-10-06T21:08:23.157Z,48.83
2022-10-06T21:11:46.748Z,49.65
2022-10-06T21:15:09.876Z,50.08
2022-10-06T21:18:32.291Z,50.20
2022-10-06T21:21:55.944Z,50.22
2022-10-06T21:25:19.200Z,55.40
2022-10-06T21:28:42.783Z,50.97
2022-10-06T21:32:09.734Z,46.22
2022-10-06T21:35:41.116Z,46.28
2022-10-06T21:39:05.977Z,56.65
2022-10-06T21:42:28.103Z,57.58
2022-10-06T21:46:00.921Z,56.90
2022-10-06T21:49:32.949Z,50.97
2022-10-06T21:52:55.128Z,52.10
2022-10-06T21:56:17.687Z,52.55
2022-10-06T21:59:40.981Z,52.30
2022-10-06T22:03:03.760Z,51.35
2022-10-06T22:06:26.907Z,55.33
2022-10-06T22:09:48.923Z,61.28
2022-10-06T22:13:11.001Z,56.85
2022-10-06T22:16:34.850Z,60.20
2022-10-06T22:19:56.952Z,58.03
2022-10-06T22:23:19.059Z,56.58
2022-10-06T22:26:43.164Z,57.75
2022-10-06T22:30:05.741Z,64.95
2022-10-06T22:33:27.835Z,59.97
2022-10-06T22:36:52.490Z,61.53
2022-10-06T22:40:15.060Z,61.85
2022-10-06T22:43:37.785Z,65.30
2022-10-06T22:47:11.769Z,57.47
2022-10-06T22:50:34.649Z,66.55
2022-10-06T22:54:26.664Z,64.32
2022-10-06T22:57:52.478Z,65.15
2022-10-06T23:01:19.769Z,58.90
2022-10-06T23:04:42.325Z,64.95
2022-10-06T23:08:05.349Z,55.35
2022-10-06T23:11:27.661Z,54.55
2022-10-06T23:14:49.637Z,56.53
2022-10-06T23:18:11.770Z,55.78
2022-10-06T23:21:33.887Z,62.67
2022-10-06T23:25:09.180Z,60.03
2022-10-06T23:28:32.009Z,59.13
2022-10-06T23:31:54.219Z,61.75
2022-10-06T23:35:17.288Z,59.95
2022-10-06T23:40:15.589Z,54.83
2022-10-06T23:43:19.664Z,57.47
2022-10-06T23:46:45.398Z,61.17
2022-10-06T23:50:09.003Z,65.90
2022-10-06T23:53:31.840Z,57.78
2022-10-06T23:56:55.625Z,60.70
